Time;durP1;ratioP1;P1;durP2;ratioP2;P2;SDS_P1;SDS_P2;PMS_P1;PMS_P2;Temp;Humidity;BMP_temperature;BMP_pressure;BME280_temperature;BME280_humidity;BME280_pressure;Samples;Min_cycle;Max_cycle;Signal;HPM_P1;HPM_P2
2021/12/25 00:01:09;;;;;;;;;51.25;41.25;;;;;10.13;89.30;99907.59;5103257;27;45360;-73
2021/12/25 00:03:36;;;;;;;;;46.00;39.25;;;;;10.11;89.44;99909.63;5102995;27;45364;-75
2021/12/25 00:06:03;;;;;;;;;44.75;37.75;;;;;10.09;89.35;99912.47;5103223;27;45382;-74
2021/12/25 00:08:31;;;;;;;;;43.00;37.00;;;;;10.05;89.15;99905.06;5103011;27;45372;-75
2021/12/25 00:10:58;;;;;;;;;47.25;39.50;;;;;10.07;89.45;99905.72;5103227;27;45439;-74
2021/12/25 00:13:24;;;;;;;;;45.00;36.25;;;;;10.05;89.79;99905.91;5101725;27;45626;-75
2021/12/25 00:15:51;;;;;;;;;42.00;36.25;;;;;10.10;89.39;99900.03;5099659;27;45333;-74
2021/12/25 00:18:17;;;;;;;;;42.00;35.75;;;;;10.09;89.27;99890.44;5101795;27;47710;-76
2021/12/25 00:20:43;;;;;;;;;36.75;33.50;;;;;10.04;89.38;99885.69;5094454;27;45504;-75
2021/12/25 00:23:10;;;;;;;;;39.25;34.50;;;;;10.11;89.69;99893.69;5082765;28;45322;-75
2021/12/25 00:25:40;;;;;;;;;43.50;35.50;;;;;10.06;89.19;99885.50;5080565;27;46424;-75
2021/12/25 00:36:00;;;;;;;;;40.75;36.00;;;;;10.14;89.51;99892.50;5093520;27;45234;-74
2021/12/25 00:38:25;;;;;;;;;41.50;36.00;;;;;10.08;89.24;99886.09;5093612;27;46178;-75
2021/12/25 00:40:51;;;;;;;;;36.50;33.00;;;;;10.12;89.27;99878.59;5088325;27;45315;-75
2021/12/25 00:43:16;;;;;;;;;40.25;35.50;;;;;10.04;89.06;99874.25;5081105;28;45573;-75
2021/12/25 00:45:41;;;;;;;;;35.67;32.67;;;;;10.04;88.99;99877.72;5081195;27;45409;-75
2021/12/25 00:48:07;;;;;;;;;41.00;35.50;;;;;10.08;89.07;99871.00;5079692;27;46950;-75
2021/12/25 00:50:32;;;;;;;;;38.00;33.00;;;;;10.07;88.88;99868.53;5082134;27;45198;-75
2021/12/25 00:52:57;;;;;;;;;39.00;33.00;;;;;10.04;89.22;99868.94;5081826;28;45361;-75
2021/12/25 00:55:23;;;;;;;;;36.67;31.67;;;;;9.98;89.15;99858.09;5081694;27;45460;-75
2021/12/25 00:57:48;;;;;;;;;39.67;32.67;;;;;9.97;89.15;99860.94;5081967;27;46289;-75
2021/12/25 01:00:15;;;;;;;;;37.33;29.33;;;;;9.96;89.51;99859.25;5081801;27;45284;-75
2021/12/25 01:02:43;;;;;;;;;37.00;33.00;;;;;9.96;89.32;99854.78;5081953;28;45357;-75
2021/12/25 01:05:11;;;;;;;;;36.50;32.50;;;;;10.01;89.35;99862.19;5081549;28;45259;-75
2021/12/25 01:07:37;;;;;;;;;37.33;32.67;;;;;9.92;89.44;99845.56;5081830;28;45252;-75
2021/12/25 01:10:07;;;;;;;;;33.00;29.67;;;;;9.90;89.14;99846.75;5080745;28;45235;-75
2021/12/25 01:12:44;;;;;;;;;33.00;30.67;;;;;9.94;89.14;99846.19;5081966;28;45369;-75
2021/12/25 01:15:10;;;;;;;;;34.33;30.33;;;;;9.87;89.22;99837.34;5081552;28;45357;-75
2021/12/25 01:49:34;;;;;;;;;29.00;27.67;;;;;9.59;88.71;99862.00;5121845;27;45291;-76
2021/12/25 01:51:59;;;;;;;;;30.33;28.67;;;;;9.56;88.68;99865.88;5122152;27;45160;-76
2021/12/25 01:54:25;;;;;;;;;31.33;28.67;;;;;9.56;88.88;99873.00;5122238;27;45230;-75
2021/12/25 01:56:50;;;;;;;;;27.33;25.00;;;;;9.43;88.63;99858.59;5122285;27;45273;-75
2021/12/25 01:59:16;;;;;;;;;25.33;25.00;;;;;9.47;88.97;99878.44;5122133;27;45173;-75
2021/12/25 02:01:42;;;;;;;;;24.33;21.67;;;;;9.45;88.99;99874.31;5122169;27;45352;-76
2021/12/25 02:04:07;;;;;;;;;28.00;28.00;;;;;9.41;89.12;99876.53;5121655;27;45400;-76
2021/12/25 02:06:33;;;;;;;;;26.00;24.00;;;;;9.42;89.42;99878.16;5122110;27;45298;-75
2021/12/25 02:08:58;;;;;;;;;39.75;34.00;;;;;9.45;89.51;99882.25;5120579;27;48224;-76
2021/12/25 02:11:25;;;;;;;;;39.75;34.25;;;;;9.47;89.85;99890.88;5120720;27;45301;-76
2021/12/25 02:13:50;;;;;;;;;43.75;35.75;;;;;9.48;89.86;99887.19;5122001;27;45335;-76
2021/12/25 02:16:19;;;;;;;;;41.25;34.75;;;;;9.41;89.77;99873.88;5121650;27;45472;-76
2021/12/25 02:21:26;;;;;;;;;47.75;38.75;;;;;9.53;89.94;99890.13;5121534;27;45461;-76
2021/12/25 02:23:51;;;;;;;;;37.50;32.25;;;;;9.53;89.86;99882.16;5121899;27;45378;-75
2021/12/25 02:26:18;;;;;;;;;45.50;36.25;;;;;9.44;90.03;99870.84;5120279;27;45996;-76
2021/12/25 02:28:44;;;;;;;;;40.75;34.00;;;;;9.51;90.10;99883.34;5120131;27;47233;-76
2021/12/25 02:31:11;;;;;;;;;40.25;34.25;;;;;9.51;89.99;99878.03;5121628;27;45356;-76
2021/12/25 02:33:38;;;;;;;;;38.25;33.50;;;;;9.43;89.93;99871.84;5121452;27;45225;-76
2021/12/25 02:36:08;;;;;;;;;38.50;34.25;;;;;9.44;89.83;99880.63;5121439;27;45375;-76
2021/12/25 02:38:34;;;;;;;;;43.50;36.50;;;;;9.39;89.43;99875.06;5101687;27;46983;-76
2021/12/25 02:41:00;;;;;;;;;36.25;33.25;;;;;9.37;89.43;99877.09;5100847;27;45326;-76
2021/12/25 02:43:26;;;;;;;;;38.75;33.75;;;;;9.33;89.01;99871.31;5100748;27;45289;-76
2021/12/25 02:45:56;;;;;;;;;39.00;33.00;;;;;9.27;89.10;99877.38;5100801;27;45245;-76
2021/12/25 02:48:23;;;;;;;;;32.67;29.67;;;;;9.20;89.15;99870.19;5100611;27;45670;-76
2021/12/25 02:50:49;;;;;;;;;42.00;34.75;;;;;9.12;89.37;99867.63;5100276;27;45345;-76
2021/12/25 02:53:15;;;;;;;;;31.33;30.67;;;;;9.06;88.95;99866.56;5100729;27;45296;-76
2021/12/25 02:55:43;;;;;;;;;34.50;32.50;;;;;9.06;88.81;99877.16;5099136;27;47039;-76
2021/12/25 02:58:10;;;;;;;;;36.33;33.33;;;;;8.91;89.08;99857.78;5100431;27;46980;-76
2021/12/25 03:00:42;;;;;;;;;30.67;30.67;;;;;8.98;88.76;99874.59;5100308;27;45314;-76
2021/12/25 03:03:08;;;;;;;;;33.33;29.33;;;;;8.91;89.15;99852.50;5099185;27;45270;-75
2021/12/25 03:05:34;;;;;;;;;33.00;29.00;;;;;8.94;88.72;99858.25;5098883;27;46934;-76
2021/12/25 03:07:59;;;;;;;;;30.33;29.00;;;;;8.87;89.07;99843.28;5100444;27;46434;-76
2021/12/25 03:10:25;;;;;;;;;34.00;30.67;;;;;8.89;89.20;99852.69;5100404;27;45299;-76
2021/12/25 03:13:05;;;;;;;;;29.67;28.00;;;;;8.95;88.99;99859.09;5100620;27;45471;-76
2021/12/25 03:15:41;;;;;;;;;29.67;28.00;;;;;8.90;89.16;99846.38;5100248;27;45263;-76
2021/12/25 03:18:07;;;;;;;;;32.00;31.33;;;;;8.90;89.25;99854.34;5098874;27;47191;-76
2021/12/25 03:20:34;;;;;;;;;36.00;32.00;;;;;8.95;89.54;99864.38;5100147;27;45374;-76
2021/12/25 03:23:00;;;;;;;;;37.00;33.00;;;;;9.01;89.60;99873.44;5100388;27;45329;-75
2021/12/25 03:25:25;;;;;;;;;41.25;36.25;;;;;9.01;89.33;99865.47;5098784;27;45328;-76
2021/12/25 03:27:51;;;;;;;;;36.00;33.25;;;;;9.03;89.30;99858.13;5099956;27;46160;-76
2021/12/25 03:30:20;;;;;;;;;32.67;31.67;;;;;9.08;89.64;99872.50;5098698;27;45324;-76
2021/12/25 03:32:46;;;;;;;;;36.00;33.33;;;;;8.95;89.41;99840.53;5101928;27;45242;-76
2021/12/25 03:35:11;;;;;;;;;40.00;33.67;;;;;9.15;89.34;99869.91;5102020;27;46174;-76
2021/12/25 03:37:37;;;;;;;;;35.00;31.00;;;;;9.20;89.38;99874.66;5113756;27;46140;-76
2021/12/25 03:40:03;;;;;;;;;36.25;33.00;;;;;9.18;89.48;99866.91;5124469;27;45231;-76
2021/12/25 03:42:29;;;;;;;;;37.25;33.25;;;;;9.22;88.97;99870.00;5124635;27;45324;-76
2021/12/25 03:44:54;;;;;;;;;37.75;34.50;;;;;9.18;89.07;99869.53;5124109;27;45299;-75
2021/12/25 03:47:34;;;;;;;;;46.50;38.25;;;;;9.19;89.24;99871.19;5124194;27;45320;-76
2021/12/25 03:58:13;;;;;;;;;45.75;38.00;;;;;9.22;89.29;99894.66;5123839;27;45315;-76
2021/12/25 04:00:40;;;;;;;;;42.67;37.00;;;;;9.21;89.37;99890.38;5122435;27;45265;-76
2021/12/25 04:03:09;;;;;;;;;47.75;38.00;;;;;9.17;89.42;99883.81;5124014;27;45353;-76
2021/12/25 04:05:39;;;;;;;;;52.25;42.00;;;;;9.22;89.71;99878.75;5123599;27;45490;-76
2021/12/25 04:08:10;;;;;;;;;54.25;44.75;;;;;9.33;89.51;99897.84;5123788;27;45340;-76
2021/12/25 04:10:42;;;;;;;;;53.00;43.00;;;;;9.31;89.40;99883.97;5122354;27;45329;-76
2021/12/25 04:13:11;;;;;;;;;53.50;43.50;;;;;9.38;89.72;99895.47;5123943;27;45395;-76
2021/12/25 04:15:37;;;;;;;;;50.25;41.25;;;;;9.36;89.38;99892.16;5123560;27;45479;-76
2021/12/25 04:18:03;;;;;;;;;42.75;36.75;;;;;9.44;89.25;99899.19;5122242;27;47345;-76
2021/12/25 04:20:29;;;;;;;;;46.25;37.50;;;;;9.45;89.27;99890.22;5123624;27;45301;-76
2021/12/25 04:23:03;;;;;;;;;43.75;35.25;;;;;9.40;89.27;99888.13;5123805;27;45387;-75
2021/12/25 04:25:31;;;;;;;;;35.75;33.00;;;;;9.51;89.31;99893.94;5123546;27;45291;-75
2021/12/25 04:28:03;;;;;;;;;34.33;31.67;;;;;9.44;89.34;99877.97;5122203;27;48048;-75
2021/12/25 04:30:56;;;;;;;;;33.33;31.00;;;;;9.53;89.16;99886.63;5123535;27;45494;-75
2021/12/25 05:05:43;;;;;;;;;26.00;26.00;;;;;9.66;88.96;99886.78;5102393;27;45291;-75
2021/12/25 05:08:09;;;;;;;;;26.33;26.33;;;;;9.64;88.99;99888.78;5100980;27;45965;-75
2021/12/25 05:10:34;;;;;;;;;29.00;28.67;;;;;9.60;88.99;99880.41;5102315;27;46008;-75
2021/12/25 05:13:00;;;;;;;;;31.67;28.33;;;;;9.65;89.24;99890.44;5102454;27;45273;-75
2021/12/25 05:15:25;;;;;;;;;31.33;30.00;;;;;9.59;89.35;99880.59;5102302;27;45389;-75
2021/12/25 05:17:50;;;;;;;;;27.33;26.00;;;;;9.65;89.24;99890.44;5100885;27;46989;-75
2021/12/25 05:20:16;;;;;;;;;31.67;27.67;;;;;9.69;89.44;99896.19;5102031;27;45464;-75
2021/12/25 05:22:41;;;;;;;;;26.67;23.00;;;;;9.70;89.71;99897.84;5102181;27;45266;-75
2021/12/25 05:25:06;;;;;;;;;24.67;24.67;;;;;9.67;89.63;99879.66;5102368;27;45254;-75
2021/12/25 05:27:32;;;;;;;;;32.67;28.00;;;;;9.68;89.85;99886.59;5100713;27;46203;-75
2021/12/25 05:29:57;;;;;;;;;30.00;26.33;;;;;9.75;89.71;99891.97;5101851;27;45325;-75
2021/12/25 05:32:23;;;;;;;;;27.00;24.33;;;;;9.61;89.31;99867.97;5100717;27;45355;-75
2021/12/25 05:34:48;;;;;;;;;27.67;24.00;;;;;9.79;89.86;99888.72;5101801;27;45351;-75
2021/12/25 05:37:14;;;;;;;;;30.00;29.67;;;;;9.77;89.88;99885.44;5108734;27;45325;-75
2021/12/25 05:39:42;;;;;;;;;27.00;22.33;;;;;9.80;89.80;99892.22;5121148;27;47606;-75
2021/12/25 05:42:08;;;;;;;;;27.67;26.33;;;;;9.87;89.63;99894.94;5121040;27;45233;-75
2021/12/25 05:44:34;;;;;;;;;28.33;27.00;;;;;9.89;89.23;99900.84;5122408;27;45179;-75
2021/12/25 05:46:59;;;;;;;;;39.67;31.67;;;;;9.76;89.54;99878.47;5122429;27;45209;-75
2021/12/25 05:49:25;;;;;;;;;27.00;26.33;;;;;9.90;90.10;99898.00;5120899;27;46973;-75
2021/12/25 05:51:51;;;;;;;;;30.00;29.33;;;;;9.84;89.45;99893.47;5122370;27;45269;-75
2021/12/25 05:54:17;;;;;;;;;33.67;29.67;;;;;9.88;89.57;99897.41;5122038;27;45312;-75
2021/12/25 05:56:42;;;;;;;;;29.33;28.33;;;;;9.83;89.47;99891.81;5120189;27;46118;-75
2021/12/25 05:59:07;;;;;;;;;32.67;30.67;;;;;9.88;89.48;99896.56;5122143;27;45293;-75
2021/12/25 06:01:33;;;;;;;;;30.00;29.00;;;;;9.87;89.60;99887.78;5122203;27;45438;-75
2021/12/25 06:03:58;;;;;;;;;33.33;30.33;;;;;9.88;89.69;99891.25;5121859;27;45553;-75
2021/12/25 06:06:24;;;;;;;;;28.67;25.67;;;;;9.92;89.33;99897.81;5120737;27;46235;-75
2021/12/25 06:08:51;;;;;;;;;30.67;25.67;;;;;9.95;89.26;99902.75;5122038;27;45570;-75
2021/12/25 06:11:17;;;;;;;;;27.33;26.00;;;;;9.96;89.04;99909.69;5121983;27;45321;-75
2021/12/25 06:13:54;;;;;;;;;29.67;25.67;;;;;9.95;89.15;99906.25;5122008;27;45371;-75
2021/12/25 06:16:20;;;;;;;;;31.67;29.33;;;;;9.96;89.35;99905.22;5121967;27;45163;-75
2021/12/25 06:18:45;;;;;;;;;27.67;25.33;;;;;10.00;89.38;99913.63;5120175;27;48217;-75
2021/12/25 06:21:11;;;;;;;;;27.67;27.67;;;;;10.04;89.00;99917.53;5121873;27;45316;-75
2021/12/25 06:23:36;;;;;;;;;30.67;27.67;;;;;10.05;89.25;99913.03;5122133;27;45312;-75
2021/12/25 06:26:02;;;;;;;;;28.67;27.67;;;;;9.94;88.96;99899.28;5120476;27;46366;-75
2021/12/25 06:28:27;;;;;;;;;23.67;22.00;;;;;10.03;88.92;99917.72;5121650;27;45241;-75
2021/12/25 06:30:52;;;;;;;;;26.33;22.67;;;;;10.06;88.84;99912.84;5121821;27;45229;-75
2021/12/25 06:33:18;;;;;;;;;28.00;25.00;;;;;10.05;88.77;99921.84;5121530;27;45340;-75
2021/12/25 06:35:43;;;;;;;;;28.00;24.00;;;;;10.02;88.64;99916.06;5121443;27;45335;-75
2021/12/25 06:38:09;;;;;;;;;28.00;27.00;;;;;10.03;88.82;99915.09;5105316;27;46890;-75
2021/12/25 06:40:34;;;;;;;;;27.00;25.00;;;;;10.03;89.17;99915.09;5100977;27;45295;-75
2021/12/25 06:43:01;;;;;;;;;30.67;29.33;;;;;10.04;89.00;99917.53;5101063;27;45309;-75
2021/12/25 06:45:27;;;;;;;;;26.67;26.67;;;;;10.09;88.81;99932.91;5100714;27;45468;-75
2021/12/25 06:47:52;;;;;;;;;32.33;30.00;;;;;10.08;88.92;99920.63;5100741;27;46351;-75
2021/12/25 06:50:18;;;;;;;;;27.67;25.33;;;;;10.09;88.86;99923.09;5100557;27;45225;-75
2021/12/25 06:52:45;;;;;;;;;26.00;25.00;;;;;10.09;88.75;99924.94;5100849;27;45481;-75
2021/12/25 06:55:11;;;;;;;;;25.33;25.33;;;;;10.08;88.70;99925.94;5099397;27;47353;-75
2021/12/25 06:57:45;;;;;;;;;25.33;21.67;;;;;10.08;88.74;99920.63;5100520;27;45335;-76
2021/12/25 07:00:11;;;;;;;;;28.67;26.00;;;;;10.06;88.96;99920.00;5100560;27;45507;-75
2021/12/25 07:02:37;;;;;;;;;29.00;27.33;;;;;10.00;88.96;99913.63;5100509;27;45219;-75
2021/12/25 07:05:03;;;;;;;;;29.00;28.00;;;;;10.07;88.79;99933.09;5100192;27;45375;-75
2021/12/25 07:07:29;;;;;;;;;27.67;23.33;;;;;10.02;88.96;99916.06;5099266;27;45351;-75
2021/12/25 07:09:54;;;;;;;;;28.00;26.00;;;;;10.09;88.72;99931.06;5100466;27;45305;-76
2021/12/25 07:12:22;;;;;;;;;35.00;29.00;;;;;10.03;88.68;99926.50;5100609;27;45389;-76
2021/12/25 07:14:48;;;;;;;;;34.33;31.67;;;;;10.03;88.77;99928.34;5100191;27;45542;-75
2021/12/25 07:17:13;;;;;;;;;27.33;25.33;;;;;10.00;88.74;99920.78;5100329;27;46268;-76
2021/12/25 07:19:38;;;;;;;;;37.33;33.00;;;;;10.06;88.82;99935.94;5100166;27;45223;-76
2021/12/25 07:22:04;;;;;;;;;42.25;36.25;;;;;10.01;88.81;99927.72;5099224;27;45252;-75
2021/12/25 07:24:29;;;;;;;;;40.00;32.00;;;;;10.00;88.78;99926.09;5100349;27;45430;-76
2021/12/25 07:26:54;;;;;;;;;37.00;32.75;;;;;10.02;88.90;99924.03;5100273;27;46015;-75
2021/12/25 07:29:20;;;;;;;;;43.00;37.00;;;;;10.01;88.56;99925.06;5100325;27;45214;-75
2021/12/25 07:31:45;;;;;;;;;45.25;36.50;;;;;10.04;88.65;99930.00;5099011;27;45229;-75
2021/12/25 07:34:10;;;;;;;;;44.50;37.50;;;;;9.98;88.62;99934.22;5099918;27;45246;-76
2021/12/25 07:36:36;;;;;;;;;41.25;34.75;;;;;10.04;88.80;99937.94;5101676;27;45277;-76
2021/12/25 07:39:02;;;;;;;;;45.50;38.50;;;;;10.05;88.88;99940.41;5120779;27;45353;-76
2021/12/25 07:41:27;;;;;;;;;45.25;36.50;;;;;10.04;88.85;99944.09;5120927;27;45283;-76
2021/12/25 07:43:53;;;;;;;;;45.25;37.00;;;;;10.07;88.53;99943.72;5120622;27;45477;-76
2021/12/25 07:46:19;;;;;;;;;43.00;36.50;;;;;10.09;88.80;99946.19;5120517;27;45884;-75
2021/12/25 07:48:46;;;;;;;;;47.25;39.00;;;;;10.01;88.64;99938.34;5119075;27;45449;-76
2021/12/25 07:51:11;;;;;;;;;43.75;37.00;;;;;10.07;88.67;99948.19;5119287;27;45279;-76
2021/12/25 07:53:37;;;;;;;;;42.50;36.00;;;;;10.09;88.70;99951.50;5120372;27;45256;-76
2021/12/25 07:56:02;;;;;;;;;49.00;40.00;;;;;10.10;88.62;99946.00;5119032;27;47063;-75
2021/12/25 07:58:28;;;;;;;;;44.00;37.50;;;;;10.03;88.68;99923.84;5120518;27;45510;-76
2021/12/25 08:00:53;;;;;;;;;49.75;40.50;;;;;10.14;88.61;99946.41;5119309;27;45315;-76
2021/12/25 08:03:19;;;;;;;;;45.75;38.75;;;;;10.16;88.43;99947.06;5120033;27;45466;-76
2021/12/25 08:05:45;;;;;;;;;46.50;38.75;;;;;10.19;88.39;99951.16;5118803;27;47232;-76
2021/12/25 08:08:12;;;;;;;;;44.50;36.75;;;;;10.12;88.79;99942.31;5120207;27;45274;-76
2021/12/25 08:10:39;;;;;;;;;41.25;35.75;;;;;10.11;88.65;99944.13;5120469;27;45237;-76
2021/12/25 08:13:04;;;;;;;;;47.00;40.00;;;;;10.15;87.96;99941.94;5094366;27;45460;-77
2021/12/25 08:15:31;;;;;;;;;52.00;40.00;;;;;10.21;88.29;99954.47;5082080;27;45816;-77
2021/12/25 08:17:58;;;;;;;;;51.00;42.00;;;;;10.22;88.62;99961.41;5079681;27;45373;-76
2021/12/25 08:20:24;;;;;;;;;48.75;39.25;;;;;10.22;88.62;99956.09;5082654;27;45437;-76
2021/12/25 08:22:50;;;;;;;;;48.25;40.75;;;;;10.19;88.12;99951.16;5081228;28;47032;-76
2021/12/25 08:25:16;;;;;;;;;47.00;39.25;;;;;10.10;88.45;99939.84;5081281;28;46138;-75
2021/12/25 08:27:43;;;;;;;;;48.25;37.00;;;;;10.19;88.63;99959.97;5082563;28;45275;-75
2021/12/25 08:30:15;;;;;;;;;42.00;34.75;;;;;10.20;88.61;99958.94;5082585;27;45435;-75
2021/12/25 08:32:42;;;;;;;;;48.00;36.50;;;;;10.20;88.67;99952.78;5080948;28;46278;-75
2021/12/25 08:35:11;;;;;;;;;50.00;40.50;;;;;10.21;88.67;99959.78;5082051;27;46165;-76
2021/12/25 08:37:36;;;;;;;;;44.00;36.25;;;;;10.22;88.78;99956.09;5102304;27;45522;-73
2021/12/25 08:40:04;;;;;;;;;46.50;39.50;;;;;10.15;88.83;99949.91;5123586;27;45345;-72
2021/12/25 08:42:29;;;;;;;;;41.50;34.50;;;;;10.20;88.60;99948.31;5123505;27;45327;-73
2021/12/25 08:47:23;;;;;;;;;39.00;34.50;;;;;10.29;88.61;99961.44;5123477;27;45207;-73
2021/12/25 08:49:49;;;;;;;;;44.75;36.25;;;;;10.22;88.60;99954.25;5123056;27;45380;-73
2021/12/25 08:52:18;;;;;;;;;43.67;35.67;;;;;10.25;88.43;99958.38;5121573;27;46828;-73
2021/12/25 08:54:45;;;;;;;;;42.75;35.50;;;;;10.29;88.59;99953.47;5121771;27;46085;-73
2021/12/25 08:57:11;;;;;;;;;49.00;39.75;;;;;10.29;88.59;99953.47;5123162;27;45255;-73
2021/12/25 08:59:39;;;;;;;;;43.00;35.00;;;;;10.32;88.76;99958.41;5123033;27;45255;-73
2021/12/25 09:02:08;;;;;;;;;45.50;37.75;;;;;10.28;88.54;99944.72;5121474;27;46250;-74
2021/12/25 09:04:36;;;;;;;;;46.50;36.00;;;;;10.33;88.38;99954.75;5122467;27;45361;-73
2021/12/25 09:07:02;;;;;;;;;45.25;36.75;;;;;10.41;88.64;99959.91;5123008;27;45262;-73
2021/12/25 09:09:28;;;;;;;;;42.75;35.25;;;;;10.36;88.81;99954.38;5121860;27;45508;-73
2021/12/25 09:11:53;;;;;;;;;42.00;36.25;;;;;10.36;88.83;99954.38;5122752;27;45333;-73
2021/12/25 09:14:19;;;;;;;;;32.67;31.00;;;;;10.45;89.13;99971.00;5122555;27;46213;-74
2021/12/25 09:16:44;;;;;;;;;40.67;33.33;;;;;10.44;88.88;99958.69;5122968;27;45386;-74
2021/12/25 09:19:09;;;;;;;;;37.33;33.33;;;;;10.43;88.21;99957.91;5121337;27;45472;-73
2021/12/25 09:21:35;;;;;;;;;37.33;32.33;;;;;10.47;88.56;99959.19;5122716;27;45384;-73
2021/12/25 09:24:00;;;;;;;;;36.00;32.67;;;;;10.58;88.57;99970.28;5122662;27;47038;-74
2021/12/25 09:26:26;;;;;;;;;38.33;34.00;;;;;10.61;88.44;99972.56;5122720;27;45265;-73
2021/12/25 09:28:51;;;;;;;;;38.67;33.00;;;;;10.60;88.57;99965.63;5122819;27;45245;-73
2021/12/25 09:31:17;;;;;;;;;33.00;30.00;;;;;10.67;88.54;99969.16;5121549;27;45437;-72
2021/12/25 09:33:43;;;;;;;;;27.67;26.33;;;;;10.68;88.50;99967.28;5122402;27;45650;-73
2021/12/25 09:36:08;;;;;;;;;33.67;30.00;;;;;10.76;88.36;99968.97;5122458;27;45161;-73
2021/12/25 09:38:35;;;;;;;;;30.00;29.33;;;;;10.82;88.13;99979.66;5102952;27;45244;-73
2021/12/25 09:41:03;;;;;;;;;32.67;30.00;;;;;10.85;88.13;99970.47;5101960;27;45450;-73
2021/12/25 09:43:28;;;;;;;;;34.00;30.67;;;;;10.83;88.16;99969.84;5101688;27;45606;-74
2021/12/25 09:45:54;;;;;;;;;32.00;28.67;;;;;10.86;88.43;99980.91;5101749;27;45348;-73
2021/12/25 09:48:21;;;;;;;;;35.33;31.67;;;;;10.85;88.03;99978.44;5101888;27;45310;-74
2021/12/25 09:50:47;;;;;;;;;30.00;26.00;;;;;10.91;88.16;99982.16;5101728;27;45388;-73
2021/12/25 09:53:15;;;;;;;;;30.33;30.00;;;;;10.97;87.81;99987.53;5101328;27;46017;-73
2021/12/25 09:55:42;;;;;;;;;31.67;29.67;;;;;11.05;87.64;99991.84;5101527;27;45255;-73
2021/12/25 09:58:08;;;;;;;;;34.00;30.67;;;;;11.04;87.71;99984.09;5100267;27;45227;-73
2021/12/25 10:00:36;;;;;;;;;33.00;29.00;;;;;11.07;87.97;99983.69;5101367;27;45527;-73
2021/12/25 10:03:02;;;;;;;;;35.67;30.00;;;;;11.16;87.98;99997.66;5101290;27;45885;-74
2021/12/25 10:05:37;;;;;;;;;37.00;32.00;;;;;11.20;87.50;99998.91;5100133;27;46098;-73
2021/12/25 10:08:15;;;;;;;;;36.33;31.00;;;;;11.19;87.80;99990.09;5101699;27;45353;-73
2021/12/25 10:10:42;;;;;;;;;34.67;29.67;;;;;11.25;87.70;100001.78;5099978;27;46177;-72
2021/12/25 10:13:31;;;;;;;;;31.33;28.33;;;;;11.27;88.21;99991.78;5099630;27;47206;-72
2021/12/25 10:16:17;;;;;;;;;37.00;31.00;;;;;11.31;87.94;99987.69;5099681;27;45473;-73
2021/12/25 10:18:42;;;;;;;;;30.00;28.00;;;;;11.35;87.89;99994.25;5087199;27;45405;-72
2021/12/25 10:21:29;;;;;;;;;31.33;27.67;;;;;11.35;88.03;99990.81;5081461;27;45389;-71
2021/12/25 10:24:02;;;;;;;;;27.67;27.00;;;;;11.36;87.75;99982.63;5090344;27;46009;-72
2021/12/25 10:26:27;;;;;;;;;32.00;28.33;;;;;11.36;88.16;99987.13;5090322;27;45536;-72
2021/12/25 10:28:52;;;;;;;;;27.67;27.33;;;;;11.32;88.07;99972.56;5090126;27;45508;-73
2021/12/25 10:31:30;;;;;;;;;35.00;30.67;;;;;11.36;87.62;99989.78;5088101;27;45501;-73
2021/12/25 10:33:55;;;;;;;;;36.00;32.67;;;;;11.27;88.09;99962.53;5080094;27;47148;-73
2021/12/25 10:36:27;;;;;;;;;36.00;33.00;;;;;11.39;88.01;99977.91;5080396;27;45340;-73
2021/12/25 10:39:11;;;;;;;;;39.33;33.33;;;;;11.40;88.07;99972.38;5079264;28;45338;-73
2021/12/25 10:41:50;;;;;;;;;41.67;33.00;;;;;11.41;87.98;99965.22;5080179;28;45363;-73
2021/12/25 10:44:23;;;;;;;;;34.33;30.00;;;;;11.48;87.82;99972.22;5078599;28;46233;-73
2021/12/25 10:46:48;;;;;;;;;35.00;32.33;;;;;11.49;87.97;99970.38;5080389;27;45332;-74
2021/12/25 10:49:15;;;;;;;;;38.33;34.33;;;;;11.53;87.90;99976.13;5078735;28;45308;-73
2021/12/25 10:51:40;;;;;;;;;35.33;31.67;;;;;11.50;87.91;99961.38;5080358;27;45439;-73
2021/12/25 10:54:10;;;;;;;;;35.67;31.33;;;;;11.61;87.53;99965.28;5078581;28;47135;-73
2021/12/25 10:56:37;;;;;;;;;35.00;30.67;;;;;11.70;87.46;99968.63;5078916;28;45329;-75
2021/12/25 10:59:07;;;;;;;;;34.33;32.67;;;;;11.82;87.25;99963.53;5095851;27;45345;-73
2021/12/25 11:01:39;;;;;;;;;37.67;32.67;;;;;11.91;87.25;99958.84;5078769;28;46532;-73
2021/12/25 11:04:06;;;;;;;;;30.00;28.33;;;;;12.00;87.30;99950.44;5086069;27;45333;-74
2021/12/25 11:06:40;;;;;;;;;32.00;28.33;;;;;12.03;86.96;99943.88;5084171;27;45360;-73
2021/12/25 11:09:08;;;;;;;;;37.33;33.00;;;;;12.17;86.53;99941.25;5099124;27;45328;-73
2021/12/25 11:11:33;;;;;;;;;27.33;26.00;;;;;12.17;86.26;99944.75;5099453;27;45573;-73
2021/12/25 11:14:01;;;;;;;;;30.67;28.67;;;;;12.20;86.06;99941.69;5098742;27;45539;-73
2021/12/25 11:16:31;;;;;;;;;30.33;29.00;;;;;12.28;85.72;99942.50;5099135;27;45655;-73
2021/12/25 11:19:12;;;;;;;;;36.00;30.00;;;;;12.28;85.96;99953.16;5095261;27;45740;-74
2021/12/25 11:21:43;;;;;;;;;36.33;31.67;;;;;12.25;86.11;99941.88;5098572;27;46667;-74
2021/12/25 11:24:18;;;;;;;;;41.33;33.00;;;;;12.15;86.24;99935.31;5098578;27;47111;-73
2021/12/25 11:26:49;;;;;;;;;35.33;32.33;;;;;12.16;85.88;99936.97;5098484;27;45416;-74
2021/12/25 11:29:17;;;;;;;;;31.33;30.33;;;;;12.16;86.27;99936.97;5098537;27;45313;-74
2021/12/25 11:31:44;;;;;;;;;40.00;32.00;;;;;12.15;85.98;99927.34;5098565;27;46093;-73
2021/12/25 11:34:10;;;;;;;;;31.67;30.67;;;;;12.10;86.45;99933.28;5098253;27;48165;-73
2021/12/25 11:36:40;;;;;;;;;31.00;29.33;;;;;12.06;86.52;99929.34;5098578;27;45346;-73
2021/12/25 11:39:06;;;;;;;;;34.33;31.33;;;;;12.03;86.28;99933.22;5100029;27;45295;-73
2021/12/25 11:41:34;;;;;;;;;37.33;33.00;;;;;12.02;86.35;99928.09;5095004;27;45757;-73
2021/12/25 11:44:03;;;;;;;;;35.33;31.33;;;;;12.02;86.10;99930.75;5080923;27;46196;-73
2021/12/25 11:46:44;;;;;;;;;32.33;30.67;;;;;12.00;86.07;99929.13;5079422;27;45352;-73
2021/12/25 11:49:14;;;;;;;;;34.67;31.67;;;;;12.01;86.12;99929.97;5079132;28;45543;-73
2021/12/25 11:51:43;;;;;;;;;40.00;33.00;;;;;11.99;86.36;99930.16;5095212;27;47152;-73
2021/12/25 11:55:17;;;;;;;;;39.33;32.00;;;;;11.99;86.39;99927.50;5097009;27;45420;-73
2021/12/25 11:57:46;;;;;;;;;43.25;36.50;;;;;11.92;86.43;99921.34;5090982;27;45510;-73
2021/12/25 12:00:12;;;;;;;;;38.33;32.67;;;;;11.94;86.27;99915.81;5101869;27;45324;-73
2021/12/25 12:02:39;;;;;;;;;43.67;35.00;;;;;11.94;86.85;99915.81;5101656;27;46817;-73
2021/12/25 12:05:25;;;;;;;;;39.67;33.00;;;;;11.95;86.40;99910.28;5103174;27;45302;-73
2021/12/25 12:08:11;;;;;;;;;42.67;36.00;;;;;11.79;86.50;99886.72;5101949;27;45424;-73
2021/12/25 12:10:46;;;;;;;;;45.50;38.50;;;;;11.96;86.85;99919.09;5094503;27;45362;-74
2021/12/25 12:13:27;;;;;;;;;39.33;34.00;;;;;11.97;86.41;99918.06;5102454;27;45310;-73
2021/12/25 12:15:58;;;;;;;;;45.50;38.75;;;;;11.99;86.42;99919.50;5102851;27;46345;-73
2021/12/25 12:18:24;;;;;;;;;39.67;34.67;;;;;11.97;86.22;99916.22;5102827;27;45340;-73
2021/12/25 12:20:51;;;;;;;;;38.67;32.00;;;;;11.94;86.01;99905.16;5097006;27;45352;-73
2021/12/25 12:26:09;;;;;;;;;41.33;34.00;;;;;11.79;86.68;99897.38;5093117;27;45310;-75
2021/12/25 12:28:47;;;;;;;;;40.00;33.33;;;;;11.83;86.72;99904.72;5091197;27;45368;-74
2021/12/25 12:31:37;;;;;;;;;34.33;31.00;;;;;11.82;86.81;99904.97;5091886;27;45506;-73
2021/12/25 12:34:32;;;;;;;;;34.33;31.00;;;;;11.83;86.95;99902.06;5090281;27;45458;-73
2021/12/25 12:37:23;;;;;;;;;35.33;32.00;;;;;11.83;86.80;99896.75;5100469;27;47513;-73
2021/12/25 12:39:56;;;;;;;;;46.75;38.75;;;;;11.82;86.83;99900.44;5091991;27;45482;-73
2021/12/25 12:45:20;;;;;;;;;48.75;39.75;;;;;11.79;86.89;99890.19;5092230;27;45350;-73
2021/12/25 12:48:17;;;;;;;;;48.50;40.50;;;;;11.82;87.10;99896.97;5091759;27;45293;-72
2021/12/25 12:50:55;;;;;;;;;48.00;38.75;;;;;11.82;86.94;99897.78;5092253;27;45346;-73
2021/12/25 12:53:24;;;;;;;;;39.00;34.33;;;;;11.83;87.15;99898.59;5102968;27;45453;-73
2021/12/25 12:55:54;;;;;;;;;41.67;35.67;;;;;11.87;87.16;99894.50;5085283;27;45590;-73